createdAt,value
2019-03-02T00:02:20.604Z,99.90
2019-03-02T00:04:49.416Z,99.90
2019-03-02T00:07:17.927Z,99.90
2019-03-02T00:09:46.324Z,99.90
2019-03-02T00:12:14.725Z,99.90
2019-03-02T00:14:43.152Z,99.90
2019-03-02T00:17:11.564Z,99.90
2019-03-02T00:19:41.909Z,99.90
2019-03-02T00:22:10.648Z,99.90
2019-03-02T00:24:39.053Z,99.90
2019-03-02T00:27:07.458Z,99.90
2019-03-02T00:29:35.872Z,99.90
2019-03-02T00:32:05.830Z,99.90
2019-03-02T00:34:34.427Z,99.90
2019-03-02T00:37:02.849Z,99.90
2019-03-02T00:39:31.336Z,99.90
2019-03-02T00:41:59.746Z,99.90
2019-03-02T00:44:28.165Z,99.90
2019-03-02T00:46:59.658Z,99.90
2019-03-02T00:49:26.692Z,99.90
2019-03-02T00:51:55.172Z,99.90
2019-03-02T00:54:24.957Z,99.90
2019-03-02T00:56:53.377Z,99.90
2019-03-02T00:59:21.788Z,99.90
2019-03-02T01:01:50.176Z,99.90
2019-03-02T01:04:18.576Z,99.90
2019-03-02T01:06:48.715Z,99.90
2019-03-02T01:09:17.148Z,99.90
2019-03-02T01:11:45.552Z,99.90
2019-03-02T01:14:14.219Z,99.90
2019-03-02T01:16:42.614Z,99.90
2019-03-02T01:19:11.030Z,99.90
2019-03-02T01:21:41.315Z,99.90
2019-03-02T01:24:09.570Z,99.90
2019-03-02T01:26:38.000Z,99.90
2019-03-02T01:29:06.388Z,99.90
2019-03-02T01:31:36.769Z,99.90
2019-03-02T01:34:08.156Z,99.90
2019-03-02T01:36:35.141Z,99.90
2019-03-02T01:39:03.973Z,99.90
2019-03-02T01:41:32.398Z,99.90
2019-03-02T01:44:00.840Z,99.90
2019-03-02T01:46:29.240Z,99.90
2019-03-02T01:48:58.646Z,99.90
2019-03-02T01:51:27.807Z,99.90
2019-03-02T01:53:56.196Z,99.90
2019-03-02T01:56:24.604Z,99.90
2019-03-02T01:58:53.034Z,99.90
2019-03-02T02:01:24.868Z,99.90
2019-03-02T02:03:51.692Z,99.90
2019-03-02T02:06:20.097Z,99.90
2019-03-02T02:08:48.513Z,99.90
2019-03-02T02:11:18.024Z,99.90
2019-03-02T02:13:47.156Z,99.90
2019-03-02T02:16:15.587Z,99.90
2019-03-02T02:18:43.985Z,99.90
2019-03-02T02:21:12.388Z,99.90
2019-03-02T02:23:40.803Z,99.90
2019-03-02T02:26:11.298Z,99.90
2019-03-02T02:28:39.471Z,99.90
2019-03-02T02:31:08.092Z,99.90
2019-03-02T02:33:42.667Z,99.90
2019-03-02T02:36:06.792Z,99.90
2019-03-02T02:38:35.871Z,99.90
2019-03-02T02:41:04.384Z,99.90
2019-03-02T02:43:32.793Z,99.90
2019-03-02T02:46:01.202Z,99.90
2019-03-02T02:48:31.259Z,99.90
2019-03-02T02:51:04.381Z,99.90
2019-03-02T02:53:29.882Z,99.90
2019-03-02T02:55:58.308Z,99.90
2019-03-02T02:58:26.731Z,99.90
2019-03-02T03:00:56.761Z,99.90
2019-03-02T03:03:25.513Z,99.90
2019-03-02T03:05:55.512Z,99.90
2019-03-02T03:08:39.137Z,99.90
2019-03-02T03:11:08.344Z,99.90
2019-03-02T03:13:40.799Z,99.90
2019-03-02T03:16:11.608Z,99.90
2019-03-02T03:18:39.037Z,99.90
2019-03-02T03:21:07.457Z,99.90
2019-03-02T03:23:35.861Z,99.90
2019-03-02T03:26:04.272Z,99.90
2019-03-02T03:28:32.753Z,99.90
2019-03-02T03:31:01.173Z,99.90
2019-03-02T03:33:41.538Z,99.90
2019-03-02T03:35:59.729Z,99.90
2019-03-02T03:38:29.313Z,99.90
2019-03-02T03:41:00.188Z,99.90
2019-03-02T03:43:28.595Z,99.90
2019-03-02T03:45:57.082Z,99.90
2019-03-02T03:48:25.557Z,99.90
2019-03-02T03:50:54.078Z,99.90
2019-03-02T03:53:26.601Z,99.90
2019-03-02T03:55:52.837Z,99.90
2019-03-02T03:58:21.562Z,99.90
2019-03-02T04:00:50.022Z,99.90
2019-03-02T04:03:18.492Z,99.90
2019-03-02T04:05:48.647Z,99.90
2019-03-02T04:08:17.191Z,99.90
2019-03-02T04:10:45.583Z,99.90
2019-03-02T04:13:13.979Z,99.90
2019-03-02T04:15:43.485Z,99.90
2019-03-02T04:18:39.376Z,99.90
2019-03-02T04:21:07.869Z,99.90
2019-03-02T04:23:36.272Z,99.90
2019-03-02T04:26:04.676Z,99.90
2019-03-02T04:28:33.082Z,99.90
2019-03-02T04:31:04.756Z,99.90
2019-03-02T04:33:31.603Z,99.90
2019-03-02T04:36:00.024Z,99.90
2019-03-02T04:38:28.428Z,99.90
2019-03-02T04:40:56.829Z,99.90
2019-03-02T04:43:25.229Z,99.90
2019-03-02T04:45:53.632Z,99.90
2019-03-02T04:48:22.034Z,99.90
2019-03-02T04:50:50.448Z,99.90
2019-03-02T04:53:21.508Z,99.90
2019-03-02T04:55:49.421Z,99.90
2019-03-02T04:58:17.804Z,99.90
2019-03-02T05:00:46.197Z,99.90
2019-03-02T05:03:14.607Z,99.90
2019-03-02T05:05:43.446Z,99.90
2019-03-02T05:08:11.989Z,99.90
2019-03-02T05:10:40.412Z,99.90
2019-03-02T05:13:08.819Z,99.90
2019-03-02T05:15:37.230Z,99.90
2019-03-02T05:18:05.648Z,99.90
2019-03-02T05:20:34.048Z,99.90
2019-03-02T05:23:02.686Z,99.90
2019-03-02T05:25:31.100Z,99.90
2019-03-02T05:27:59.515Z,99.90
2019-03-02T05:30:30.511Z,99.90
2019-03-02T05:32:58.072Z,99.90
2019-03-02T05:35:26.486Z,99.90
2019-03-02T05:37:54.957Z,99.90
2019-03-02T05:40:24.465Z,99.90
2019-03-02T05:42:53.490Z,99.90
2019-03-02T05:45:23.867Z,99.90
2019-03-02T05:47:52.583Z,99.90
2019-03-02T05:50:20.975Z,99.90
2019-03-02T05:52:50.892Z,99.90
2019-03-02T05:55:19.533Z,99.90
2019-03-02T05:57:47.946Z,99.90
2019-03-02T06:00:19.124Z,99.90
2019-03-02T06:02:47.535Z,99.90
2019-03-02T06:05:15.997Z,99.90
2019-03-02T06:07:44.388Z,99.90
2019-03-02T06:10:14.807Z,99.90
2019-03-02T06:12:43.873Z,99.90
2019-03-02T06:15:13.900Z,99.90
2019-03-02T06:17:42.315Z,99.90
2019-03-02T06:20:12.048Z,99.90
2019-03-02T06:22:40.448Z,99.90
2019-03-02T06:25:19.180Z,99.90
2019-03-02T06:27:43.090Z,99.90
2019-03-02T06:30:19.454Z,99.90
2019-03-02T06:32:47.876Z,99.90
2019-03-02T06:35:16.447Z,99.90
2019-03-02T06:37:44.879Z,99.90
2019-03-02T06:40:16.046Z,99.90
2019-03-02T06:42:46.732Z,99.90
2019-03-02T06:45:16.795Z,99.90
2019-03-02T06:47:45.288Z,99.90
2019-03-02T06:50:17.859Z,99.90
2019-03-02T06:52:46.355Z,99.90
2019-03-02T06:55:15.889Z,99.90
2019-03-02T06:57:46.188Z,99.90
2019-03-02T07:00:19.297Z,99.90
2019-03-02T07:02:49.530Z,99.90
2019-03-02T07:05:17.996Z,99.90
2019-03-02T07:07:46.501Z,99.90
2019-03-02T07:10:21.830Z,99.90
2019-03-02T07:12:50.416Z,99.90
2019-03-02T07:15:18.826Z,99.90
2019-03-02T07:18:08.015Z,99.90
2019-03-02T07:20:41.283Z,99.90
2019-03-02T07:23:10.510Z,99.90
2019-03-02T07:25:40.764Z,99.90
2019-03-02T07:28:09.131Z,99.90
2019-03-02T07:30:38.208Z,99.90
2019-03-02T07:33:06.620Z,99.90
2019-03-02T07:35:35.044Z,99.90
2019-03-02T07:38:03.467Z,99.90
2019-03-02T07:40:31.882Z,99.90
2019-03-02T07:43:00.295Z,99.90
2019-03-02T07:45:31.355Z,99.90
2019-03-02T07:48:00.283Z,99.90
2019-03-02T07:50:29.727Z,99.90
2019-03-02T07:52:58.263Z,99.90
2019-03-02T07:55:26.689Z,99.90
2019-03-02T07:57:55.103Z,99.90
2019-03-02T08:00:23.579Z,99.90
2019-03-02T08:02:51.967Z,99.90
2019-03-02T08:05:20.379Z,99.90
2019-03-02T08:07:48.779Z,99.90
2019-03-02T08:10:17.243Z,99.90
2019-03-02T08:12:45.664Z,99.90
2019-03-02T08:15:25.846Z,99.90
2019-03-02T08:17:54.338Z,99.90
2019-03-02T08:20:24.434Z,99.90
2019-03-02T08:22:52.936Z,99.90
2019-03-02T08:25:21.347Z,99.90
2019-03-02T08:27:51.412Z,99.90
2019-03-02T08:30:26.250Z,99.90
2019-03-02T08:32:57.640Z,99.90
2019-03-02T08:35:24.779Z,99.90
2019-03-02T08:37:53.196Z,99.90
2019-03-02T08:40:23.266Z,99.90
2019-03-02T08:42:51.723Z,99.90
2019-03-02T08:45:20.480Z,99.90
2019-03-02T08:47:48.899Z,99.90
2019-03-02T08:50:18.837Z,99.90
2019-03-02T08:52:47.580Z,99.90
2019-03-02T08:55:17.105Z,99.90
2019-03-02T08:57:45.779Z,99.90
2019-03-02T09:00:19.395Z,99.90
2019-03-02T09:02:47.779Z,99.90
2019-03-02T09:05:16.174Z,99.90
2019-03-02T09:07:44.605Z,99.90
2019-03-02T09:10:15.048Z,99.90
2019-03-02T09:12:43.519Z,99.90
2019-03-02T09:15:29.901Z,99.90
2019-03-02T09:17:57.950Z,99.90
2019-03-02T09:20:26.999Z,99.90
2019-03-02T09:22:56.458Z,99.90
2019-03-02T09:25:27.714Z,99.90
2019-03-02T09:27:55.913Z,99.90
2019-03-02T09:30:24.363Z,99.90
2019-03-02T09:32:54.538Z,99.90
2019-03-02T09:35:23.067Z,99.90
2019-03-02T09:37:51.813Z,99.90
2019-03-02T09:40:21.555Z,99.90
2019-03-02T09:42:50.171Z,99.90
2019-03-02T09:45:19.208Z,99.90
2019-03-02T09:47:49.858Z,99.90
2019-03-02T09:50:21.867Z,99.90
2019-03-02T09:52:50.459Z,99.90
2019-03-02T09:55:20.320Z,99.90
2019-03-02T09:57:49.471Z,99.90
2019-03-02T10:00:25.962Z,99.90
2019-03-02T10:02:54.866Z,99.90
2019-03-02T10:05:23.524Z,99.90
2019-03-02T10:07:51.938Z,99.90
2019-03-02T10:10:20.614Z,99.90
2019-03-02T10:12:51.735Z,99.90
2019-03-02T10:15:24.039Z,99.90
2019-03-02T10:17:52.524Z,99.90
2019-03-02T10:20:21.097Z,99.90
2019-03-02T10:22:49.483Z,99.90
2019-03-02T10:25:17.911Z,99.90
2019-03-02T10:27:47.077Z,99.90
2019-03-02T10:30:22.122Z,99.90
2019-03-02T10:32:51.874Z,99.90
2019-03-02T10:35:21.375Z,99.90
2019-03-02T10:37:49.839Z,99.90
2019-03-02T10:40:19.603Z,99.90
2019-03-02T10:42:47.991Z,99.90
2019-03-02T10:45:20.647Z,99.90
2019-03-02T10:47:49.204Z,99.90
2019-03-02T10:50:23.314Z,99.90
2019-03-02T10:52:50.439Z,99.90
2019-03-02T10:55:21.059Z,99.90
2019-03-02T10:57:49.706Z,99.90
2019-03-02T11:00:25.786Z,99.90
2019-03-02T11:02:56.030Z,99.90
2019-03-02T11:05:27.033Z,99.90
2019-03-02T11:08:09.109Z,99.90
2019-03-02T11:10:52.239Z,99.90
2019-03-02T11:13:22.725Z,99.90
2019-03-02T11:16:09.215Z,99.90
2019-03-02T11:18:39.256Z,99.90
2019-03-02T11:21:15.263Z,99.90
2019-03-02T11:23:57.579Z,99.90
2019-03-02T11:26:39.840Z,99.90
2019-03-02T11:29:12.379Z,99.90
2019-03-02T11:31:45.896Z,99.90
2019-03-02T11:34:33.786Z,99.90
2019-03-02T11:37:15.887Z,99.90
2019-03-02T11:39:53.293Z,99.90
2019-03-02T11:42:32.933Z,99.90
2019-03-02T11:45:06.024Z,99.90
2019-03-02T11:47:54.291Z,99.90
2019-03-02T11:50:33.503Z,99.90
2019-03-02T11:53:12.772Z,99.90
2019-03-02T11:55:47.344Z,99.90
2019-03-02T11:58:33.497Z,99.90
2019-03-02T12:01:16.223Z,99.90
2019-03-02T12:03:51.867Z,99.90
2019-03-02T12:06:37.814Z,99.90
2019-03-02T12:09:33.383Z,99.90
2019-03-02T12:12:03.421Z,99.90
2019-03-02T12:14:46.283Z,99.90
2019-03-02T12:17:17.285Z,99.90
2019-03-02T12:19:56.203Z,99.90
2019-03-02T12:22:30.323Z,99.90
2019-03-02T12:25:09.859Z,99.70
2019-03-02T12:27:58.662Z,99.80
2019-03-02T12:30:29.420Z,99.90
2019-03-02T12:32:59.472Z,99.90
2019-03-02T12:35:34.502Z,99.90
2019-03-02T12:38:07.237Z,99.90
2019-03-02T12:40:45.392Z,99.90
2019-03-02T12:43:21.055Z,99.90
2019-03-02T12:45:53.800Z,99.90
2019-03-02T12:48:32.638Z,99.90
2019-03-02T12:51:17.693Z,99.90
2019-03-02T12:53:56.335Z,99.90
2019-03-02T12:56:34.261Z,99.90
2019-03-02T12:59:19.519Z,99.90
2019-03-02T13:01:55.332Z,99.90
2019-03-02T13:04:28.289Z,99.90
2019-03-02T13:06:58.332Z,99.90
2019-03-02T13:09:28.382Z,99.90
2019-03-02T13:12:02.025Z,99.80
2019-03-02T13:14:32.297Z,99.60
2019-03-02T13:17:14.367Z,97.90
2019-03-02T13:19:44.434Z,98.00
2019-03-02T13:22:17.258Z,97.90
2019-03-02T13:24:47.317Z,97.90
2019-03-02T13:27:25.027Z,97.90
2019-03-02T13:30:01.063Z,97.20
2019-03-02T13:32:34.206Z,96.50
2019-03-02T13:35:07.010Z,96.80
2019-03-02T13:37:57.326Z,97.20
2019-03-02T13:40:33.779Z,96.80
2019-03-02T13:43:15.963Z,99.20
2019-03-02T13:45:46.743Z,99.10
2019-03-02T13:48:33.200Z,96.70
2019-03-02T13:51:03.285Z,96.20
2019-03-02T13:53:34.067Z,96.50
2019-03-02T13:56:10.042Z,95.70
2019-03-02T13:58:40.100Z,95.90
2019-03-02T14:01:28.311Z,96.40
2019-03-02T14:04:01.119Z,96.20
2019-03-02T14:06:40.187Z,96.30
2019-03-02T14:09:20.114Z,95.50
2019-03-02T14:12:02.836Z,95.40
2019-03-02T14:14:32.876Z,96.20
2019-03-02T14:17:11.819Z,96.30
2019-03-02T14:19:41.996Z,97.10
2019-03-02T14:22:15.828Z,97.50
2019-03-02T14:24:58.175Z,97.00
2019-03-02T14:27:28.247Z,96.70
2019-03-02T14:30:07.191Z,96.40
2019-03-02T14:32:40.036Z,96.20
2019-03-02T14:35:16.499Z,97.30
2019-03-02T14:37:48.783Z,97.30
2019-03-02T14:40:24.527Z,97.90
2019-03-02T14:42:57.491Z,97.90
2019-03-02T14:45:30.618Z,98.90
2019-03-02T14:48:16.859Z,99.60
2019-03-02T14:50:47.112Z,99.90
2019-03-02T14:53:26.291Z,99.90
2019-03-02T14:55:56.383Z,99.90
2019-03-02T14:58:29.109Z,99.90
2019-03-02T15:01:02.688Z,99.90
2019-03-02T15:03:34.074Z,99.90
2019-03-02T15:06:08.695Z,99.80
2019-03-02T15:08:37.396Z,99.60
2019-03-02T15:11:23.104Z,99.90
2019-03-02T15:13:53.156Z,99.90
2019-03-02T15:16:25.927Z,99.90
2019-03-02T15:18:55.991Z,99.90
2019-03-02T15:21:37.721Z,99.90
2019-03-02T15:24:11.393Z,99.90
2019-03-02T15:26:55.660Z,99.90
2019-03-02T15:29:42.332Z,99.90
2019-03-02T15:32:20.281Z,99.90
2019-03-02T15:34:54.170Z,99.90
2019-03-02T15:37:25.266Z,99.90
2019-03-02T15:40:13.523Z,99.90
2019-03-02T15:42:54.322Z,99.90
2019-03-02T15:45:40.647Z,99.90
2019-03-02T15:48:10.712Z,99.90
2019-03-02T15:50:46.719Z,99.90
2019-03-02T15:53:20.311Z,99.90
2019-03-02T15:56:03.575Z,99.90
2019-03-02T15:58:48.523Z,99.90
2019-03-02T16:01:30.820Z,99.90
2019-03-02T16:04:05.227Z,99.90
2019-03-02T16:06:35.390Z,99.90
2019-03-02T16:09:09.314Z,99.90
2019-03-02T16:11:48.573Z,99.90
2019-03-02T16:14:24.240Z,99.90
2019-03-02T16:16:54.306Z,99.90
2019-03-02T16:19:33.571Z,99.90
2019-03-02T16:22:07.012Z,99.90
2019-03-02T16:24:39.738Z,99.90
2019-03-02T16:27:09.778Z,99.90
2019-03-02T16:29:42.379Z,99.90
2019-03-02T16:32:24.613Z,99.90
2019-03-02T16:35:00.413Z,99.90
2019-03-02T16:37:36.235Z,99.90
2019-03-02T16:40:09.641Z,99.90
2019-03-02T16:42:50.778Z,99.90
2019-03-02T16:45:26.357Z,99.90
2019-03-02T16:47:56.402Z,99.90
2019-03-02T16:50:36.140Z,99.90
2019-03-02T16:53:22.812Z,99.90
2019-03-02T16:55:59.240Z,99.90
2019-03-02T16:58:29.691Z,99.90
2019-03-02T17:01:10.094Z,99.90
2019-03-02T17:03:56.615Z,99.90
2019-03-02T17:06:30.197Z,99.90
2019-03-02T17:09:18.455Z,99.90
2019-03-02T17:11:51.608Z,99.90
2019-03-02T17:14:24.174Z,99.90
2019-03-02T17:16:54.215Z,99.90
2019-03-02T17:19:28.169Z,99.90
2019-03-02T17:21:58.727Z,99.90
2019-03-02T17:24:28.839Z,99.90
2019-03-02T17:27:07.877Z,99.90
2019-03-02T17:29:49.805Z,99.90
2019-03-02T17:32:22.716Z,99.90
2019-03-02T17:34:58.549Z,99.90
2019-03-02T17:37:40.853Z,99.90
2019-03-02T17:40:10.997Z,99.90
2019-03-02T17:42:53.203Z,99.90
2019-03-02T17:45:23.248Z,99.90
2019-03-02T17:47:53.300Z,99.90
2019-03-02T17:50:23.352Z,99.90
2019-03-02T17:52:54.303Z,99.90
2019-03-02T17:55:24.921Z,99.90
2019-03-02T17:58:11.225Z,99.90
2019-03-02T18:00:43.896Z,99.90
2019-03-02T18:03:14.060Z,99.90
2019-03-02T18:05:47.498Z,99.90
2019-03-02T18:08:18.665Z,99.90
2019-03-02T18:10:48.779Z,99.90
2019-03-02T18:13:18.836Z,99.90
2019-03-02T18:16:06.597Z,99.90
2019-03-02T18:18:35.091Z,99.90
2019-03-02T18:21:03.484Z,99.90
2019-03-02T18:23:31.954Z,99.90
2019-03-02T18:26:00.341Z,99.90
2019-03-02T18:28:28.758Z,99.90
2019-03-02T18:30:57.528Z,99.90
2019-03-02T18:33:27.758Z,99.90
2019-03-02T18:35:57.428Z,99.90
2019-03-02T18:38:25.841Z,99.90
2019-03-02T18:40:54.250Z,99.90
2019-03-02T18:43:22.735Z,99.90
2019-03-02T18:45:51.217Z,99.90
2019-03-02T18:48:24.051Z,99.90
2019-03-02T18:50:56.807Z,99.90
2019-03-02T18:53:25.200Z,99.90
2019-03-02T18:55:53.627Z,99.90
2019-03-02T18:58:24.028Z,99.90
2019-03-02T19:00:54.200Z,99.90
2019-03-02T19:03:24.948Z,99.90
2019-03-02T19:05:52.562Z,99.90
2019-03-02T19:08:20.971Z,99.90
2019-03-02T19:10:49.397Z,99.90
2019-03-02T19:13:17.782Z,99.90
2019-03-02T19:15:53.463Z,99.90
2019-03-02T19:18:16.954Z,99.90
2019-03-02T19:20:45.698Z,99.90
2019-03-02T19:23:14.100Z,99.90
2019-03-02T19:25:42.505Z,99.90
2019-03-02T19:28:10.926Z,99.90
2019-03-02T19:30:39.320Z,99.90
2019-03-02T19:33:07.713Z,99.90
2019-03-02T19:35:36.111Z,99.90
2019-03-02T19:38:05.868Z,99.90
2019-03-02T19:40:34.666Z,99.90
2019-03-02T19:43:03.324Z,99.90
2019-03-02T19:45:31.793Z,99.90
2019-03-02T19:48:00.211Z,99.90
2019-03-02T19:50:28.629Z,99.90
2019-03-02T19:52:57.031Z,99.90
2019-03-02T19:55:25.446Z,99.90
2019-03-02T19:57:53.900Z,99.90
2019-03-02T20:00:28.011Z,99.90
2019-03-02T20:02:56.409Z,99.90
2019-03-02T20:05:24.916Z,99.90
2019-03-02T20:07:53.376Z,99.90
2019-03-02T20:10:21.932Z,99.90
2019-03-02T20:12:50.428Z,99.90
2019-03-02T20:15:23.505Z,99.90
2019-03-02T20:17:51.909Z,99.90
2019-03-02T20:20:20.502Z,99.90
2019-03-02T20:22:48.912Z,99.90
2019-03-02T20:25:18.468Z,99.90
2019-03-02T20:27:46.986Z,99.90
2019-03-02T20:30:23.915Z,99.90
2019-03-02T20:32:52.428Z,99.90
2019-03-02T20:35:32.016Z,99.90
2019-03-02T20:38:00.507Z,99.90
2019-03-02T20:40:29.979Z,99.90
2019-03-02T20:42:58.389Z,99.90
2019-03-02T20:45:27.190Z,99.90
2019-03-02T20:47:55.596Z,99.90
2019-03-02T20:50:24.736Z,99.90
2019-03-02T20:52:53.163Z,99.90
2019-03-02T20:55:21.644Z,99.90
2019-03-02T20:57:50.483Z,99.90
2019-03-02T21:00:27.799Z,99.90
2019-03-02T21:02:57.236Z,99.90
2019-03-02T21:05:26.758Z,99.90
2019-03-02T21:07:55.185Z,99.90
2019-03-02T21:10:27.700Z,99.90
2019-03-02T21:12:56.106Z,99.90
2019-03-02T21:15:29.229Z,99.90
2019-03-02T21:17:57.629Z,99.90
2019-03-02T21:20:26.119Z,99.90
2019-03-02T21:22:54.524Z,99.90
2019-03-02T21:25:23.006Z,99.90
2019-03-02T21:27:51.420Z,99.90
2019-03-02T21:30:20.807Z,99.90
2019-03-02T21:32:49.231Z,99.90
2019-03-02T21:35:17.626Z,99.90
2019-03-02T21:37:47.184Z,99.90
2019-03-02T21:40:18.099Z,99.90
2019-03-02T21:42:46.496Z,99.90
2019-03-02T21:45:20.376Z,99.90
2019-03-02T21:47:49.114Z,99.90
2019-03-02T21:50:20.323Z,99.90
2019-03-02T21:52:48.739Z,99.90
2019-03-02T21:55:17.241Z,99.90
2019-03-02T21:57:45.636Z,99.90
2019-03-02T22:00:22.980Z,99.90
2019-03-02T22:02:51.843Z,99.90
2019-03-02T22:05:20.244Z,99.90
2019-03-02T22:07:48.683Z,99.90
2019-03-02T22:10:22.372Z,99.90
2019-03-02T22:12:50.776Z,99.90
2019-03-02T22:15:19.249Z,99.90
2019-03-02T22:17:49.288Z,99.90
2019-03-02T22:20:17.685Z,99.90
2019-03-02T22:22:46.123Z,99.90
2019-03-02T22:25:19.084Z,99.90
2019-03-02T22:27:47.478Z,99.90
2019-03-02T22:30:18.601Z,99.90
2019-03-02T22:32:46.997Z,99.90
2019-03-02T22:35:15.396Z,99.90
2019-03-02T22:37:43.876Z,99.90
2019-03-02T22:40:14.805Z,99.90
2019-03-02T22:42:43.350Z,99.90
2019-03-02T22:45:13.895Z,99.90
2019-03-02T22:47:42.458Z,99.90
2019-03-02T22:50:22.646Z,99.90
2019-03-02T22:52:51.427Z,99.90
2019-03-02T22:55:19.818Z,99.90
2019-03-02T22:57:48.724Z,99.90
2019-03-02T23:00:29.293Z,99.90
2019-03-02T23:02:56.864Z,99.90
2019-03-02T23:05:25.389Z,99.90
2019-03-02T23:07:53.790Z,99.90
2019-03-02T23:10:22.197Z,99.90
2019-03-02T23:12:50.606Z,99.90
2019-03-02T23:15:21.120Z,99.90
2019-03-02T23:17:49.521Z,99.90
2019-03-02T23:20:17.985Z,99.90
2019-03-02T23:22:46.392Z,99.90
2019-03-02T23:25:15.620Z,99.90
2019-03-02T23:27:44.156Z,99.90
2019-03-02T23:30:18.426Z,99.90
2019-03-02T23:32:46.963Z,99.90
2019-03-02T23:35:15.446Z,99.90
2019-03-02T23:37:43.879Z,99.90
2019-03-02T23:40:14.120Z,99.90
2019-03-02T23:42:42.596Z,99.90
2019-03-02T23:45:15.321Z,99.90
2019-03-02T23:47:43.728Z,99.90
2019-03-02T23:50:12.885Z,99.90
2019-03-02T23:52:41.286Z,99.90
2019-03-02T23:55:12.774Z,99.90
2019-03-02T23:57:41.254Z,99.90
